Flight Track Log - Related Links

Times and Time Zones

All times are in EDT time to prevent confusion due to time zone crossing. See the N868TB flight status page for this flight to view local times or setup timezone preferences in your user account.

Time Position Orientation Groundspeed Altitude Reporting Facility
EDT Latitude Longitude Course Direction KTS MPH feet Rate Location/Type
Wed 03:23:45 PM 32.8500 -117.1667 34° Northeast 101 116 4,600  Level Southern California TRACON
Wed 03:24:45 PM 32.8667 -117.2000 301° West 99 114 5,100 450 Climbing Southern California TRACON
Wed 03:25:45 PM 32.8833 -117.2167 320° Northwest 104 120 5,500 397 Climbing Southern California TRACON
Wed 03:26:46 PM 32.9167 -117.2333 337° Northwest 99 114 5,900 397 Climbing Southern California TRACON
Wed 03:27:46 PM 32.9333 -117.2500 320° Northwest 104 120 6,300 400 Climbing Southern California TRACON
Wed 03:28:00 PM -19.9122 -160.1481 122° Southeast  Level Estimated
Wed 03:28:46 PM 32.9667 -117.2667 337° Northwest 105 121 6,700  Level Southern California TRACON
Wed 03:29:00 PM -19.8851 -160.1283 34° Northeast  Level Estimated
Wed 03:29:41 PM 32.9833 -117.2833 320° Northwest 124 143 6,700  Level Southern California TRACON
Wed 03:30:41 PM 33.0167 -117.3167 320° Northwest 128 147 6,700  Level Southern California TRACON
Wed 03:31:42 PM 33.0500 -117.3333 337° Northwest 130 150 6,700  Level Southern California TRACON
Wed 03:32:47 PM 33.0833 -117.3667 320° Northwest 130 150 6,700  Level Southern California TRACON
Wed 03:33:35 PM 33.0961 -117.3858 309° West 129 148 6,700 -52 Level Los Angeles Center
Wed 03:34:42 PM 33.1333 -117.4167 325° Northwest 130 150 6,600  Descending Southern California TRACON
Wed 03:35:42 PM 33.1500 -117.4500 301° West 132 152 6,700 50 Climbing Southern California TRACON
Wed 03:36:42 PM 33.1833 -117.4667 337° Northwest 128 147 6,700  Level Southern California TRACON
Wed 03:37:42 PM 33.2167 -117.5000 320° Northwest 126 145 6,700 -50 Level Southern California TRACON
Wed 03:38:42 PM 33.2333 -117.5333 301° West 126 145 6,600  Descending Southern California TRACON
Wed 03:39:42 PM 33.2667 -117.5500 337° Northwest 125 144 6,700 50 Climbing Southern California TRACON
Wed 03:40:42 PM 33.2833 -117.5833 301° West 127 146 6,700  Level Southern California TRACON
Wed 03:41:42 PM 33.3167 -117.6167 320° Northwest 126 145 6,700 -45 Level Southern California TRACON
Wed 03:42:54 PM 33.3381 -117.6428 314° West 127 146 6,600 -45 Descending Los Angeles Center
Wed 03:43:56 PM 33.3656 -117.6694 321° Northwest 127 146 6,600 56 Level Los Angeles Center
Wed 03:44:42 PM 33.3833 -117.7000 305° West 128 147 6,700  Climbing Southern California TRACON
Wed 03:45:43 PM 33.4167 -117.7333 320° Northwest 128 147 6,600 -50 Descending Southern California TRACON
Wed 03:46:43 PM 33.4333 -117.7667 301° West 127 146 6,600  Level Southern California TRACON
Wed 03:47:44 PM 33.4667 -117.8000 320° Northwest 129 148 6,600  Level Southern California TRACON
Wed 03:48:44 PM 33.4833 -117.8167 320° Northwest 126 145 6,600 50 Level Southern California TRACON
Wed 03:49:44 PM 33.5167 -117.8500 320° Northwest 129 148 6,700  Climbing Southern California TRACON
Wed 03:50:50 PM 33.5333 -117.9000 292° West 135 155 6,600 -69 Descending Southern California TRACON
Wed 03:51:11 PM 33.5436 -117.9028 347° North 132 152 6,600  Level Los Angeles Center
Wed 03:52:13 PM 33.5644 -117.9406 304° West 135 155 6,600  Level Los Angeles Center
Wed 03:53:15 PM 33.5853 -117.9764 305° West 133 153 6,600  Level Los Angeles Center
Wed 03:54:17 PM 33.6086 -118.0111 309° West 133 153 6,600  Level Los Angeles Center
Wed 03:55:19 PM 33.6308 -118.0461 307° West 133 153 6,600  Level Los Angeles Center
Wed 03:55:46 PM 33.6500 -118.0667 318° Northwest 137 158 6,600  Level Southern California TRACON
Wed 03:56:51 PM 33.6667 -118.1000 301° West 137 158 6,600  Level Southern California TRACON
Wed 03:57:46 PM 33.6833 -118.1333 301° West 134 154 6,600  Level Southern California TRACON
Wed 03:58:25 PM 33.7039 -118.1581 315° West 133 153 6,600  Level Los Angeles Center
Wed 03:59:27 PM 33.7250 -118.1936 306° West 131 151 6,600  Level Los Angeles Center
Wed 04:00:29 PM 33.7450 -118.2300 303° West 132 152 6,600  Level Los Angeles Center
Wed 04:01:31 PM 33.7706 -118.2594 316° Northwest 131 151 6,600  Level Los Angeles Center
Wed 04:02:34 PM 33.8011 -118.2950 316° Northwest 131 151 6,600  Level Los Angeles Center
Wed 04:03:36 PM 33.8286 -118.3214 321° Northwest 128 147 6,600  Level Los Angeles Center
Wed 04:04:38 PM 33.8550 -118.3472 321° Northwest 125 144 6,600  Level Los Angeles Center
Wed 04:05:40 PM 33.8856 -118.3828 316° Northwest 127 146 6,600  Level Los Angeles Center
Wed 04:06:42 PM 33.9125 -118.4094 321° Northwest 127 146 6,600 48 Level Los Angeles Center
Wed 04:07:44 PM 33.9406 -118.4325 326° Northwest 124 143 6,700 48 Climbing Los Angeles Center
Wed 04:08:46 PM 33.9686 -118.4533 328° Northwest 121 139 6,700 -48 Level Los Angeles Center
Wed 04:09:48 PM 34.0033 -118.4728 335° Northwest 121 139 6,600 -48 Descending Los Angeles Center
Wed 04:10:50 PM 34.0306 -118.4969 324° Northwest 121 139 6,600 48 Level Los Angeles Center
Wed 04:11:52 PM 34.0553 -118.5156 328° Northwest 122 140 6,700  Climbing Los Angeles Center
Wed 04:12:55 PM 34.0886 -118.5458 323° Northwest 123 142 6,600 -48 Descending Los Angeles Center
Wed 04:13:57 PM 34.1128 -118.5733 317° Northwest 123 142 6,600  Level Los Angeles Center
Wed 04:14:59 PM 34.1189 -118.6111 281° West 123 142 6,600 48 Level Los Angeles Center
Wed 04:16:01 PM 34.1425 -118.6506 306° West 122 140 6,700  Climbing Los Angeles Center
Wed 04:16:33 PM 34.1450 -118.6669 280° West 127 146 6,600 -97 Descending Los Angeles Center
Wed 04:17:03 PM 34.1575 -118.6847 310° West 119 137 6,600 91 Level Los Angeles Center
Wed 04:17:39 PM 34.1603 -118.7061 279° West 117 135 6,700  Climbing Los Angeles Center
Wed 04:18:05 PM 34.1703 -118.7211 309° West 117 135 6,600 -98 Descending Los Angeles Center
Wed 04:18:40 PM 34.1753 -118.7428 286° West 119 137 6,600  Level Los Angeles Center
Wed 04:19:07 PM 34.1847 -118.7589 305° West 120 138 6,600  Level Los Angeles Center
Wed 04:19:46 PM 34.1886 -118.7828 281° West 120 138 6,600  Level Los Angeles Center
Wed 04:20:09 PM 34.1967 -118.7944 310° West 117 135 6,600  Level Los Angeles Center
Wed 04:20:47 PM 34.2053 -118.8189 293° West 117 135 6,600  Level Los Angeles Center
Wed 04:21:12 PM 34.2147 -118.8269 325° Northwest 117 135 6,600  Level Los Angeles Center
Wed 04:21:42 PM 34.2231 -118.8494 294° West 132 152 6,600  Level Los Angeles Center
Wed 04:22:14 PM 34.2336 -118.8722 299° West 127 146 6,600  Level Los Angeles Center
Wed 04:22:42 PM 34.2364 -118.8894 281° West 128 147 6,600  Level Los Angeles Center
Wed 04:23:16 PM 34.2442 -118.9128 292° West 128 147 6,600  Level Los Angeles Center
Wed 04:23:43 PM 34.2481 -118.9325 283° West 128 147 6,600  Level Los Angeles Center
Wed 04:24:18 PM 34.2550 -118.9536 292° West 128 147 6,600  Level Los Angeles Center
Wed 04:24:55 PM 34.2611 -118.9803 286° West 127 146 6,600 97 Level Los Angeles Center
Wed 04:25:20 PM 34.2653 -118.9947 289° West 128 147 6,700 109 Climbing Los Angeles Center
Wed 04:25:50 PM 34.2717 -119.0186 288° West 130 150 6,700  Level Los Angeles Center
Wed 04:26:22 PM 34.2781 -119.0350 295° West 130 150 6,700 -98 Level Los Angeles Center
Wed 04:26:51 PM 34.2856 -119.0608 289° West 132 152 6,600  Descending Los Angeles Center
Wed 04:27:24 PM 34.2925 -119.0844 290° West 131 151 6,700 100 Climbing Los Angeles Center
Wed 04:27:51 PM 34.3008 -119.1003 303° West 131 151 6,700  Level Los Angeles Center
Wed 04:28:26 PM 34.3058 -119.1247 284° West 131 151 6,700 -90 Level Los Angeles Center
Wed 04:28:58 PM 34.3169 -119.1444 304° West 129 148 6,600  Descending Los Angeles Center
Wed 04:29:28 PM 34.3200 -119.1644 280° West 130 150 6,700  Climbing Los Angeles Center
Wed 04:29:46 PM 34.3281 -119.1747 314° West 128 147 6,600  Descending Los Angeles Center
Wed 04:30:30 PM 34.3325 -119.1944 285° West 129 148 6,700  Climbing Los Angeles Center
Wed 04:30:47 PM 34.3422 -119.2186 296° West 128 147 6,600 95 Descending Los Angeles Center
Wed 04:31:33 PM 34.3506 -119.2411 294° West 128 147 6,800 446 Climbing Los Angeles Center
Wed 04:32:48 PM 34.3778 -119.2800 310° West 107 123 7,500 435 Climbing Los Angeles Center
Wed 04:33:37 PM 34.3892 -119.3039 300° West 109 125 7,700 378 Climbing Los Angeles Center
Wed 04:34:39 PM 34.3964 -119.3358 285° West 101 116 8,200 387 Climbing Los Angeles Center
Wed 04:35:41 PM 34.4008 -119.3722 278° West 102 117 8,500 194 Climbing Los Angeles Center
Wed 04:36:43 PM 34.4111 -119.4092 289° West 108 124 8,600 97 Climbing Los Angeles Center
Wed 04:37:45 PM 34.4297 -119.4450 302° West 118 136 8,700 48 Climbing Los Angeles Center
Wed 04:38:47 PM 34.4508 -119.4897 300° West 125 144 8,700  Level Los Angeles Center
Wed 04:39:50 PM 34.4631 -119.5269 292° West 121 139 8,700  Level Los Angeles Center
Wed 04:40:52 PM 34.4708 -119.5661 284° West 119 137 8,700  Level Los Angeles Center
Wed 04:41:54 PM 34.4783 -119.6086 282° West 126 145 8,700 -48 Level Los Angeles Center
Wed 04:42:56 PM 34.4942 -119.6453 298° West 126 145 8,600 -48 Descending Los Angeles Center
Wed 04:43:58 PM 34.5128 -119.6756 307° West 116 133 8,600  Level Los Angeles Center
Wed 04:45:12 PM 34.5328 -119.7264 296° West 118 136 8,600  Level Los Angeles Center
Wed 04:46:15 PM 34.5444 -119.7647 290° West 120 138 8,600  Level Los Angeles Center
Wed 04:47:17 PM 34.5572 -119.8008 293° West 118 136 8,600  Level Los Angeles Center
Wed 04:48:19 PM 34.5742 -119.8350 301° West 118 136 8,600 48 Level Los Angeles Center
Wed 04:49:21 PM 34.5942 -119.8664 308° West 118 136 8,700  Climbing Los Angeles Center
Wed 04:49:58 PM 34.6097 -119.8908 308° West 117 135 8,600 -97 Descending Los Angeles Center
Wed 04:50:23 PM 34.6172 -119.8989 319° Northwest 117 135 8,600 98 Level Los Angeles Center
Wed 04:50:59 PM 34.6319 -119.9228 307° West 118 136 8,700  Climbing Los Angeles Center
Wed 04:51:25 PM 34.6369 -119.9314 305° West 119 137 8,600 -98 Descending Los Angeles Center
Wed 04:52:00 PM 34.6503 -119.9561 303° West 121 139 8,600  Level Los Angeles Center
Wed 04:52:27 PM 34.6561 -119.9647 309° West 120 138 8,600  Level Los Angeles Center
Wed 04:53:00 PM 34.6725 -119.9883 310° West 121 139 8,600  Level Los Angeles Center
Wed 04:53:29 PM 34.6844 -119.9997 322° Northwest 120 138 8,600 98 Level Los Angeles Center
Wed 04:54:01 PM 34.6981 -120.0167 314° West 122 140 8,700  Climbing Los Angeles Center
Wed 04:54:31 PM 34.7058 -120.0314 303° West 121 139 8,600 -100 Descending Los Angeles Center
Wed 04:55:01 PM 34.7203 -120.0486 316° Northwest 123 142 8,600  Level Los Angeles Center
Wed 04:55:33 PM 34.7308 -120.0589 321° Northwest 121 139 8,600  Level Los Angeles Center
Wed 04:56:02 PM 34.7467 -120.0714 327° Northwest 122 140 8,600  Level Los Angeles Center
Wed 04:56:35 PM 34.7592 -120.0817 326° Northwest 122 140 8,600 -98 Level Los Angeles Center
Wed 04:57:03 PM 34.7744 -120.0992 317° Northwest 126 145 8,500 -194 Descending Los Angeles Center
Wed 04:57:37 PM 34.7883 -120.1156 316° Northwest 128 147 8,400 -200 Descending Los Angeles Center
Wed 04:58:03 PM 34.7981 -120.1283 313° West 126 145 8,300 -194 Descending Los Angeles Center
Wed 04:58:39 PM 34.8142 -120.1447 320° Northwest 128 147 8,200 -197 Descending Los Angeles Center
Wed 04:59:04 PM 34.8264 -120.1586 317° Northwest 127 146 8,100 -290 Descending Los Angeles Center
Wed 04:59:41 PM 34.8419 -120.1708 327° Northwest 127 146 7,900 -393 Descending Los Angeles Center
Wed 05:00:05 PM 34.8519 -120.1869 307° West 128 147 7,700 -387 Descending Los Angeles Center
Wed 05:00:43 PM 34.8600 -120.1972 314° West 127 146 7,500 -600 Descending Los Angeles Center
Wed 05:01:05 PM 34.8761 -120.2186 313° West 126 145 7,100 -568 Descending Los Angeles Center
Wed 05:01:57 PM 34.8897 -120.2333 318° Northwest 126 145 6,800 -574 Descending Los Angeles Center
Wed 05:03:00 PM 34.9231 -120.2742 315° West 123 142 6,000 -672 Descending Los Angeles Center
Wed 05:04:02 PM 34.9447 -120.3064 309° West 123 142 5,400 -484 Descending Los Angeles Center
Wed 05:05:04 PM 34.9678 -120.3381 312° West 125 144 5,000 -435 Descending Los Angeles Center
Wed 05:06:06 PM 34.9903 -120.3686 312° West 123 142 4,500 -435 Descending Los Angeles Center
Wed 05:07:08 PM 35.0122 -120.3986 312° West 120 138 4,100 -290 Descending Los Angeles Center
Wed 05:08:10 PM 35.0406 -120.4306 317° Northwest 116 133 3,900 -290 Descending Los Angeles Center
Wed 05:08:10 PM 35.0406 -120.4306 317° Northwest 117 135 3,800 -300 Descending Los Angeles Center
Wed 05:09:10 PM 35.0686 -120.4506 330° Northwest 114 131 3,600 -248 Descending Los Angeles Center
Wed 05:10:11 PM 35.0981 -120.4675 335° Northwest 116 133 3,300 -246 Descending Los Angeles Center
Wed 05:11:12 PM 35.1211 -120.4942 317° Northwest 116 133 3,100 -248 Descending Los Angeles Center
Wed 05:12:12 PM 35.1475 -120.5172 324° Northwest 116 133 2,800 -465 Descending Los Angeles Center
Wed 05:13:21 PM 35.1761 -120.5450 322° Northwest 114 131 2,100 -492 Descending Los Angeles Center
Wed 05:14:14 PM 35.1925 -120.5661 314° West 106 122 1,800 -425 Descending Los Angeles Center
Wed 05:15:14 PM 35.2083 -120.5900 309° West 91 105 1,300 -472 Descending Los Angeles Center
Wed 05:16:21 PM 35.2228 -120.6169 303° West 80 92 800 -448 Descending Los Angeles Center
Wed 05:18:00 PM 35.2333 -120.6333 315° West  Level FlightAware Approximate

Login

Don't have an account? Register now (free) for customized features, flight alerts, and more!